<?xml version='1.0' encoding='UTF-8'?><gpx version="1.1" creator="JPX - https://github.com/jenetics/jpx" xmlns="http://www.topografix.com/GPX/1/1"><trk><trkseg><trkpt lat="42.8999369" lon="11.6394748"><ele>1249.0</ele><time>2026-04-06T10:31:57.613Z</time></trkpt><trkpt lat="42.8999235" lon="11.639325"><ele>1249.0</ele><time>2026-04-06T10:31:59.612Z</time></trkpt><trkpt lat="42.8999049" lon="11.6391574"><ele>1249.0</ele><time>2026-04-06T10:32:01.612Z</time></trkpt><trkpt lat="42.8998934" lon="11.6390517"><ele>1249.0</ele><time>2026-04-06T10:32:02.612Z</time></trkpt><trkpt lat="42.8998843" lon="11.6389435"><ele>1249.0</ele><time>2026-04-06T10:32:03.611Z</time></trkpt><trkpt lat="42.8998853" lon="11.6388486"><ele>1249.0</ele><time>2026-04-06T10:32:04.613Z</time></trkpt><trkpt lat="42.8999023" lon="11.6387523"><ele>1249.0</ele><time>2026-04-06T10:32:05.613Z</time></trkpt><trkpt lat="42.899933" lon="11.6386609"><ele>1249.0</ele><time>2026-04-06T10:32:06.613Z</time></trkpt><trkpt lat="42.8999728" lon="11.6385657"><ele>1249.0</ele><time>2026-04-06T10:32:07.613Z</time></trkpt><trkpt lat="42.900019" lon="11.6384792"><ele>1249.0</ele><time>2026-04-06T10:32:08.613Z</time></trkpt><trkpt lat="42.9000828" lon="11.6383967"><ele>1249.0</ele><time>2026-04-06T10:32:09.613Z</time></trkpt><trkpt lat="42.9001804" lon="11.6383101"><ele>1249.8</ele><time>2026-04-06T10:32:10.613Z</time></trkpt><trkpt lat="42.9002711" lon="11.6382266"><ele>1250.6000000000001</ele><time>2026-04-06T10:32:11.613Z</time></trkpt><trkpt lat="42.900349" lon="11.638145"><ele>1251.4</ele><time>2026-04-06T10:32:12.613Z</time></trkpt><trkpt lat="42.9004326" lon="11.6380731"><ele>1252.2</ele><time>2026-04-06T10:32:13.613Z</time></trkpt><trkpt lat="42.9005109" lon="11.6380085"><ele>1253.0</ele><time>2026-04-06T10:32:14.612Z</time></trkpt><trkpt lat="42.9005816" lon="11.6379686"><ele>1253.0</ele><time>2026-04-06T10:32:15.612Z</time></trkpt><trkpt lat="42.9006574" lon="11.6379747"><ele>1253.0</ele><time>2026-04-06T10:32:16.613Z</time></trkpt><trkpt lat="42.9007726" lon="11.6380464"><ele>1253.0</ele><time>2026-04-06T10:32:17.613Z</time></trkpt><trkpt lat="42.9008892" lon="11.6381198"><ele>1253.0</ele><time>2026-04-06T10:32:18.612Z</time></trkpt><trkpt lat="42.9010231" lon="11.6382004"><ele>1254.5</ele><time>2026-04-06T10:32:19.613Z</time></trkpt><trkpt lat="42.9011446" lon="11.6382698"><ele>1256.0</ele><time>2026-04-06T10:32:20.613Z</time></trkpt><trkpt lat="42.9012793" lon="11.6383365"><ele>1257.5</ele><time>2026-04-06T10:32:21.613Z</time></trkpt><trkpt lat="42.9014004" lon="11.6383733"><ele>1259.0</ele><time>2026-04-06T10:32:22.613Z</time></trkpt><trkpt lat="42.9015176" lon="11.6383909"><ele>1259.0</ele><time>2026-04-06T10:32:23.613Z</time></trkpt><trkpt lat="42.9016288" lon="11.6383862"><ele>1259.0</ele><time>2026-04-06T10:32:24.612Z</time></trkpt><trkpt lat="42.9017416" lon="11.6383772"><ele>1259.0</ele><time>2026-04-06T10:32:25.613Z</time></trkpt><trkpt lat="42.9018434" lon="11.6383199"><ele>1259.0</ele><time>2026-04-06T10:32:26.613Z</time></trkpt><trkpt lat="42.9019411" lon="11.638254"><ele>1259.0</ele><time>2026-04-06T10:32:27.613Z</time></trkpt><trkpt lat="42.9020412" lon="11.6381848"><ele>1260.0</ele><time>2026-04-06T10:32:28.613Z</time></trkpt><trkpt lat="42.9021416" lon="11.6381162"><ele>1261.0</ele><time>2026-04-06T10:32:29.613Z</time></trkpt><trkpt lat="42.9022408" lon="11.6380465"><ele>1262.0</ele><time>2026-04-06T10:32:30.613Z</time></trkpt><trkpt lat="42.902334" lon="11.6379722"><ele>1263.0</ele><time>2026-04-06T10:32:31.613Z</time></trkpt><trkpt lat="42.9024111" lon="11.6378906"><ele>1264.0</ele><time>2026-04-06T10:32:32.613Z</time></trkpt><trkpt lat="42.9024797" lon="11.6377962"><ele>1264.75</ele><time>2026-04-06T10:32:33.613Z</time></trkpt><trkpt lat="42.9025407" lon="11.6376867"><ele>1265.5</ele><time>2026-04-06T10:32:34.613Z</time></trkpt><trkpt lat="42.9025927" lon="11.6375714"><ele>1266.25</ele><time>2026-04-06T10:32:35.613Z</time></trkpt><trkpt lat="42.9026389" lon="11.6374303"><ele>1267.0</ele><time>2026-04-06T10:32:36.613Z</time></trkpt><trkpt lat="42.9026805" lon="11.6372502"><ele>1267.0</ele><time>2026-04-06T10:32:37.613Z</time></trkpt><trkpt lat="42.9027162" lon="11.6370687"><ele>1267.0</ele><time>2026-04-06T10:32:38.613Z</time></trkpt><trkpt lat="42.9027516" lon="11.6369131"><ele>1267.0</ele><time>2026-04-06T10:32:39.613Z</time></trkpt><trkpt lat="42.9027875" lon="11.6367514"><ele>1267.0</ele><time>2026-04-06T10:32:40.613Z</time></trkpt><trkpt lat="42.9028185" lon="11.6365899"><ele>1267.5</ele><time>2026-04-06T10:32:41.613Z</time></trkpt><trkpt lat="42.9028457" lon="11.6364284"><ele>1268.0</ele><time>2026-04-06T10:32:42.613Z</time></trkpt><trkpt lat="42.9028728" lon="11.6362547"><ele>1268.5</ele><time>2026-04-06T10:32:43.613Z</time></trkpt><trkpt lat="42.9029056" lon="11.6360727"><ele>1269.0</ele><time>2026-04-06T10:32:44.613Z</time></trkpt><trkpt lat="42.9029424" lon="11.6359047"><ele>1269.5</ele><time>2026-04-06T10:32:45.613Z</time></trkpt><trkpt lat="42.9029745" lon="11.6357448"><ele>1270.0</ele><time>2026-04-06T10:32:46.613Z</time></trkpt><trkpt lat="42.9030099" lon="11.6355889"><ele>1270.5</ele><time>2026-04-06T10:32:47.613Z</time></trkpt><trkpt lat="42.9030435" lon="11.6354381"><ele>1271.0</ele><time>2026-04-06T10:32:48.613Z</time></trkpt><trkpt lat="42.9030754" lon="11.6352939"><ele>1272.3999999999999</ele><time>2026-04-06T10:32:49.613Z</time></trkpt><trkpt lat="42.9031132" lon="11.6351515"><ele>1273.8</ele><time>2026-04-06T10:32:50.613Z</time></trkpt><trkpt lat="42.9031538" lon="11.6350241"><ele>1275.1999999999998</ele><time>2026-04-06T10:32:51.613Z</time></trkpt><trkpt lat="42.9032032" lon="11.634901"><ele>1276.6</ele><time>2026-04-06T10:32:52.613Z</time></trkpt><trkpt lat="42.9032593" lon="11.6347883"><ele>1278.0</ele><time>2026-04-06T10:32:53.612Z</time></trkpt><trkpt lat="42.9033287" lon="11.634671"><ele>1278.0</ele><time>2026-04-06T10:32:54.613Z</time></trkpt><trkpt lat="42.9033969" lon="11.6345463"><ele>1278.0</ele><time>2026-04-06T10:32:55.613Z</time></trkpt><trkpt lat="42.9034492" lon="11.6344568"><ele>1278.0</ele><time>2026-04-06T10:32:56.613Z</time></trkpt><trkpt lat="42.9034993" lon="11.63439"><ele>1278.0</ele><time>2026-04-06T10:32:57.613Z</time></trkpt><trkpt lat="42.9035707" lon="11.6343276"><ele>1278.0</ele><time>2026-04-06T10:32:59.613Z</time></trkpt><trkpt lat="42.9036415" lon="11.6343219"><ele>1278.0</ele><time>2026-04-06T10:33:01.613Z</time></trkpt><trkpt lat="42.9037131" lon="11.6343666"><ele>1278.3333333333333</ele><time>2026-04-06T10:33:03.613Z</time></trkpt><trkpt lat="42.903788" lon="11.6344022"><ele>1278.6666666666667</ele><time>2026-04-06T10:33:06.613Z</time></trkpt><trkpt lat="42.9038093" lon="11.6343093"><ele>1279.0</ele><time>2026-04-06T10:33:09.614Z</time></trkpt><trkpt lat="42.90378" lon="11.6342135"><ele>1279.3333333333335</ele><time>2026-04-06T10:33:11.614Z</time></trkpt><trkpt lat="42.9037259" lon="11.6340689"><ele>1279.6666666666667</ele><time>2026-04-06T10:33:13.614Z</time></trkpt><trkpt lat="42.9037038" lon="11.6339855"><ele>1280.0</ele><time>2026-04-06T10:33:14.613Z</time></trkpt><trkpt lat="42.903695" lon="11.633889"><ele>1280.0</ele><time>2026-04-06T10:33:15.614Z</time></trkpt><trkpt lat="42.9036975" lon="11.6337857"><ele>1280.0</ele><time>2026-04-06T10:33:16.614Z</time></trkpt><trkpt lat="42.9036957" lon="11.6336728"><ele>1280.0</ele><time>2026-04-06T10:33:17.614Z</time></trkpt><trkpt lat="42.9036875" lon="11.6335664"><ele>1280.0</ele><time>2026-04-06T10:33:18.614Z</time></trkpt><trkpt lat="42.9036679" lon="11.633448"><ele>1280.0</ele><time>2026-04-06T10:33:19.614Z</time></trkpt><trkpt lat="42.9036362" lon="11.6333214"><ele>1280.0</ele><time>2026-04-06T10:33:20.613Z</time></trkpt><trkpt lat="42.9036175" lon="11.6332029"><ele>1281.4</ele><time>2026-04-06T10:33:21.614Z</time></trkpt><trkpt lat="42.9036052" lon="11.6330789"><ele>1282.8</ele><time>2026-04-06T10:33:22.614Z</time></trkpt><trkpt lat="42.9035874" lon="11.6329313"><ele>1284.1999999999998</ele><time>2026-04-06T10:33:23.613Z</time></trkpt><trkpt lat="42.9035651" lon="11.6327929"><ele>1285.6</ele><time>2026-04-06T10:33:24.614Z</time></trkpt><trkpt lat="42.9035414" lon="11.6326475"><ele>1287.0</ele><time>2026-04-06T10:33:25.614Z</time></trkpt><trkpt lat="42.9035234" lon="11.6324968"><ele>1288.3999999999999</ele><time>2026-04-06T10:33:26.614Z</time></trkpt><trkpt lat="42.9035043" lon="11.6323464"><ele>1289.8</ele><time>2026-04-06T10:33:27.614Z</time></trkpt><trkpt lat="42.9034903" lon="11.632197"><ele>1291.2</ele><time>2026-04-06T10:33:28.614Z</time></trkpt><trkpt lat="42.9034805" lon="11.6320439"><ele>1292.6</ele><time>2026-04-06T10:33:29.613Z</time></trkpt><trkpt lat="42.9034777" lon="11.6318919"><ele>1294.0</ele><time>2026-04-06T10:33:30.614Z</time></trkpt><trkpt lat="42.9034975" lon="11.6317476"><ele>1294.6</ele><time>2026-04-06T10:33:31.614Z</time></trkpt><trkpt lat="42.903526" lon="11.631628"><ele>1295.2</ele><time>2026-04-06T10:33:32.614Z</time></trkpt><trkpt lat="42.9035853" lon="11.631523"><ele>1295.8</ele><time>2026-04-06T10:33:34.613Z</time></trkpt><trkpt lat="42.9036389" lon="11.6314463"><ele>1296.3999999999999</ele><time>2026-04-06T10:33:37.614Z</time></trkpt><trkpt lat="42.9035829" lon="11.6315505"><ele>1297.0</ele><time>2026-04-06T10:33:43.614Z</time></trkpt><trkpt lat="42.9035512" lon="11.6317236"><ele>1297.0</ele><time>2026-04-06T10:33:45.614Z</time></trkpt><trkpt lat="42.9035177" lon="11.6318317"><ele>1297.0</ele><time>2026-04-06T10:33:46.613Z</time></trkpt><trkpt lat="42.9034966" lon="11.6319696"><ele>1297.0</ele><time>2026-04-06T10:33:47.614Z</time></trkpt><trkpt lat="42.9034878" lon="11.6321089"><ele>1297.0</ele><time>2026-04-06T10:33:48.614Z</time></trkpt><trkpt lat="42.9034995" lon="11.6322339"><ele>1297.0</ele><time>2026-04-06T10:33:49.614Z</time></trkpt><trkpt lat="42.9035035" lon="11.6323546"><ele>1296.3999999999999</ele><time>2026-04-06T10:33:50.614Z</time></trkpt><trkpt lat="42.9035097" lon="11.6324744"><ele>1295.8</ele><time>2026-04-06T10:33:51.614Z</time></trkpt><trkpt lat="42.9035249" lon="11.6326307"><ele>1295.2</ele><time>2026-04-06T10:33:52.614Z</time></trkpt><trkpt lat="42.9035327" lon="11.6327671"><ele>1294.6</ele><time>2026-04-06T10:33:53.613Z</time></trkpt><trkpt lat="42.9035443" lon="11.6328884"><ele>1294.0</ele><time>2026-04-06T10:33:54.614Z</time></trkpt><trkpt lat="42.9035514" lon="11.6329985"><ele>1292.8333333333333</ele><time>2026-04-06T10:33:55.614Z</time></trkpt><trkpt lat="42.9035583" lon="11.6331054"><ele>1291.6666666666665</ele><time>2026-04-06T10:33:56.613Z</time></trkpt><trkpt lat="42.9035689" lon="11.6332063"><ele>1290.5</ele><time>2026-04-06T10:33:57.613Z</time></trkpt><trkpt lat="42.9035794" lon="11.6333021"><ele>1289.3333333333333</ele><time>2026-04-06T10:33:58.614Z</time></trkpt><trkpt lat="42.9035988" lon="11.6333857"><ele>1288.1666666666667</ele><time>2026-04-06T10:33:59.614Z</time></trkpt><trkpt lat="42.9036255" lon="11.6334792"><ele>1287.0</ele><time>2026-04-06T10:34:00.614Z</time></trkpt><trkpt lat="42.9036863" lon="11.6336402"><ele>1285.8333333333333</ele><time>2026-04-06T10:34:02.613Z</time></trkpt><trkpt lat="42.9037155" lon="11.6337347"><ele>1284.6666666666667</ele><time>2026-04-06T10:34:03.615Z</time></trkpt><trkpt lat="42.9037267" lon="11.6338259"><ele>1283.5</ele><time>2026-04-06T10:34:04.614Z</time></trkpt><trkpt lat="42.9037236" lon="11.6339333"><ele>1282.3333333333335</ele><time>2026-04-06T10:34:05.614Z</time></trkpt><trkpt lat="42.9036875" lon="11.6340278"><ele>1281.1666666666667</ele><time>2026-04-06T10:34:06.614Z</time></trkpt><trkpt lat="42.9036348" lon="11.634124"><ele>1280.0</ele><time>2026-04-06T10:34:07.614Z</time></trkpt><trkpt lat="42.9035752" lon="11.634224"><ele>1280.0</ele><time>2026-04-06T10:34:08.614Z</time></trkpt><trkpt lat="42.9035243" lon="11.6343187"><ele>1280.0</ele><time>2026-04-06T10:34:09.613Z</time></trkpt><trkpt lat="42.903473" lon="11.6344067"><ele>1280.0</ele><time>2026-04-06T10:34:10.614Z</time></trkpt><trkpt lat="42.9034201" lon="11.6345038"><ele>1280.0</ele><time>2026-04-06T10:34:11.615Z</time></trkpt><trkpt lat="42.9033703" lon="11.6345971"><ele>1280.0</ele><time>2026-04-06T10:34:12.615Z</time></trkpt><trkpt lat="42.9033169" lon="11.6347008"><ele>1280.0</ele><time>2026-04-06T10:34:13.614Z</time></trkpt><trkpt lat="42.9032613" lon="11.6348171"><ele>1279.6</ele><time>2026-04-06T10:34:14.615Z</time></trkpt><trkpt lat="42.9032047" lon="11.6349374"><ele>1279.2</ele><time>2026-04-06T10:34:15.614Z</time></trkpt><trkpt lat="42.9031536" lon="11.6350569"><ele>1278.8</ele><time>2026-04-06T10:34:16.615Z</time></trkpt><trkpt lat="42.9031068" lon="11.6351926"><ele>1278.4</ele><time>2026-04-06T10:34:17.615Z</time></trkpt><trkpt lat="42.9030659" lon="11.635337"><ele>1278.0</ele><time>2026-04-06T10:34:18.615Z</time></trkpt><trkpt lat="42.903031" lon="11.6354834"><ele>1276.25</ele><time>2026-04-06T10:34:19.615Z</time></trkpt><trkpt lat="42.9029929" lon="11.6356382"><ele>1274.5</ele><time>2026-04-06T10:34:20.615Z</time></trkpt><trkpt lat="42.9029518" lon="11.6357858"><ele>1272.75</ele><time>2026-04-06T10:34:21.614Z</time></trkpt><trkpt lat="42.9029101" lon="11.6359352"><ele>1271.0</ele><time>2026-04-06T10:34:22.615Z</time></trkpt><trkpt lat="42.9028713" lon="11.6360804"><ele>1270.3333333333335</ele><time>2026-04-06T10:34:23.615Z</time></trkpt><trkpt lat="42.9028309" lon="11.6362333"><ele>1269.6666666666667</ele><time>2026-04-06T10:34:24.614Z</time></trkpt><trkpt lat="42.9027566" lon="11.6365365"><ele>1269.0</ele><time>2026-04-06T10:34:26.615Z</time></trkpt><trkpt lat="42.9027206" lon="11.6366824"><ele>1269.0</ele><time>2026-04-06T10:34:27.615Z</time></trkpt><trkpt lat="42.902683" lon="11.6368291"><ele>1269.0</ele><time>2026-04-06T10:34:28.615Z</time></trkpt><trkpt lat="42.9026498" lon="11.6369759"><ele>1269.0</ele><time>2026-04-06T10:34:29.615Z</time></trkpt><trkpt lat="42.9026203" lon="11.6371189"><ele>1269.0</ele><time>2026-04-06T10:34:30.615Z</time></trkpt><trkpt lat="42.9025858" lon="11.6372599"><ele>1269.0</ele><time>2026-04-06T10:34:31.615Z</time></trkpt><trkpt lat="42.9025458" lon="11.6374121"><ele>1269.0</ele><time>2026-04-06T10:34:32.614Z</time></trkpt><trkpt lat="42.9025088" lon="11.6375564"><ele>1269.0</ele><time>2026-04-06T10:34:33.614Z</time></trkpt><trkpt lat="42.9024699" lon="11.6377008"><ele>1269.0</ele><time>2026-04-06T10:34:34.615Z</time></trkpt><trkpt lat="42.9024267" lon="11.6378272"><ele>1269.0</ele><time>2026-04-06T10:34:35.614Z</time></trkpt><trkpt lat="42.902372" lon="11.6379375"><ele>1269.0</ele><time>2026-04-06T10:34:36.615Z</time></trkpt><trkpt lat="42.9023023" lon="11.638045"><ele>1268.0</ele><time>2026-04-06T10:34:37.615Z</time></trkpt><trkpt lat="42.9022225" lon="11.6381357"><ele>1267.0</ele><time>2026-04-06T10:34:38.615Z</time></trkpt><trkpt lat="42.9021267" lon="11.638212"><ele>1266.0</ele><time>2026-04-06T10:34:39.615Z</time></trkpt><trkpt lat="42.9020158" lon="11.6382739"><ele>1265.0</ele><time>2026-04-06T10:34:40.615Z</time></trkpt><trkpt lat="42.9019125" lon="11.6383341"><ele>1264.0</ele><time>2026-04-06T10:34:41.615Z</time></trkpt><trkpt lat="42.9018048" lon="11.6383959"><ele>1263.0</ele><time>2026-04-06T10:34:42.615Z</time></trkpt><trkpt lat="42.9016971" lon="11.6384458"><ele>1262.0</ele><time>2026-04-06T10:34:43.615Z</time></trkpt><trkpt lat="42.9015902" lon="11.6384609"><ele>1261.0</ele><time>2026-04-06T10:34:44.615Z</time></trkpt><trkpt lat="42.9014774" lon="11.6384447"><ele>1260.0</ele><time>2026-04-06T10:34:45.615Z</time></trkpt><trkpt lat="42.901374" lon="11.6384199"><ele>1259.0</ele><time>2026-04-06T10:34:46.615Z</time></trkpt><trkpt lat="42.9012727" lon="11.6383806"><ele>1259.0</ele><time>2026-04-06T10:34:47.615Z</time></trkpt><trkpt lat="42.9011737" lon="11.6383303"><ele>1259.0</ele><time>2026-04-06T10:34:48.615Z</time></trkpt><trkpt lat="42.9010764" lon="11.6382678"><ele>1259.0</ele><time>2026-04-06T10:34:49.615Z</time></trkpt><trkpt lat="42.9009779" lon="11.6382016"><ele>1259.0</ele><time>2026-04-06T10:34:50.615Z</time></trkpt><trkpt lat="42.900879" lon="11.6381395"><ele>1259.0</ele><time>2026-04-06T10:34:51.615Z</time></trkpt><trkpt lat="42.9007784" lon="11.6380937"><ele>1257.8</ele><time>2026-04-06T10:34:52.615Z</time></trkpt><trkpt lat="42.900678" lon="11.6380561"><ele>1256.6000000000001</ele><time>2026-04-06T10:34:53.615Z</time></trkpt><trkpt lat="42.9005795" lon="11.6380476"><ele>1255.4</ele><time>2026-04-06T10:34:54.615Z</time></trkpt><trkpt lat="42.9004844" lon="11.6380732"><ele>1254.2</ele><time>2026-04-06T10:34:55.615Z</time></trkpt><trkpt lat="42.9003986" lon="11.6381318"><ele>1253.0</ele><time>2026-04-06T10:34:56.615Z</time></trkpt><trkpt lat="42.9003068" lon="11.6382222"><ele>1253.0</ele><time>2026-04-06T10:34:57.615Z</time></trkpt><trkpt lat="42.9002156" lon="11.6383144"><ele>1253.0</ele><time>2026-04-06T10:34:58.614Z</time></trkpt><trkpt lat="42.9001315" lon="11.6384039"><ele>1253.0</ele><time>2026-04-06T10:34:59.615Z</time></trkpt><trkpt lat="42.9000389" lon="11.6385059"><ele>1253.0</ele><time>2026-04-06T10:35:00.615Z</time></trkpt><trkpt lat="42.8999562" lon="11.6386136"><ele>1252.2</ele><time>2026-04-06T10:35:01.615Z</time></trkpt><trkpt lat="42.8998846" lon="11.6387131"><ele>1251.4</ele><time>2026-04-06T10:35:02.615Z</time></trkpt><trkpt lat="42.8998331" lon="11.6388292"><ele>1250.6000000000001</ele><time>2026-04-06T10:35:03.615Z</time></trkpt><trkpt lat="42.8997977" lon="11.6389783"><ele>1249.8</ele><time>2026-04-06T10:35:04.615Z</time></trkpt><trkpt lat="42.8997727" lon="11.6391551"><ele>1249.0</ele><time>2026-04-06T10:35:05.615Z</time></trkpt><trkpt lat="42.899754" lon="11.6393119"><ele>1249.0</ele><time>2026-04-06T10:35:06.615Z</time></trkpt><trkpt lat="42.8997883" lon="11.6394515"><ele>1249.0</ele><time>2026-04-06T10:35:07.614Z</time></trkpt><trkpt lat="42.8998294" lon="11.6396056"><ele>1249.0</ele><time>2026-04-06T10:35:08.615Z</time></trkpt><trkpt lat="42.8998657" lon="11.6397638"><ele>1249.0</ele><time>2026-04-06T10:35:09.614Z</time></trkpt><trkpt lat="42.8998971" lon="11.6399269"><ele>1249.0</ele><time>2026-04-06T10:35:10.615Z</time></trkpt><trkpt lat="42.8999215" lon="11.6400888"><ele>1249.0</ele><time>2026-04-06T10:35:11.615Z</time></trkpt><trkpt lat="42.8999402" lon="11.6402388"><ele>1249.0</ele><time>2026-04-06T10:35:12.616Z</time></trkpt><trkpt lat="42.8999592" lon="11.6403887"><ele>1249.0</ele><time>2026-04-06T10:35:13.616Z</time></trkpt><trkpt lat="42.8999803" lon="11.6405297"><ele>1249.0</ele><time>2026-04-06T10:35:14.616Z</time></trkpt><trkpt lat="42.9000072" lon="11.6406615"><ele>1249.0</ele><time>2026-04-06T10:35:15.616Z</time></trkpt><trkpt lat="42.9000316" lon="11.6407986"><ele>1249.0</ele><time>2026-04-06T10:35:16.616Z</time></trkpt><trkpt lat="42.9000797" lon="11.6409209"><ele>1249.0</ele><time>2026-04-06T10:35:17.616Z</time></trkpt><trkpt lat="42.9001161" lon="11.6410466"><ele>1249.0</ele><time>2026-04-06T10:35:18.616Z</time></trkpt><trkpt lat="42.9001788" lon="11.6411503"><ele>1249.0</ele><time>2026-04-06T10:35:19.616Z</time></trkpt><trkpt lat="42.9002586" lon="11.641259"><ele>1244.25</ele><time>2026-04-06T10:35:20.616Z</time></trkpt><trkpt lat="42.9003444" lon="11.6413578"><ele>1239.5</ele><time>2026-04-06T10:35:21.616Z</time></trkpt><trkpt lat="42.9004138" lon="11.6414522"><ele>1234.75</ele><time>2026-04-06T10:35:22.616Z</time></trkpt><trkpt lat="42.9005037" lon="11.6415654"><ele>1230.0</ele><time>2026-04-06T10:35:23.616Z</time></trkpt><trkpt lat="42.9005866" lon="11.6416905"><ele>1230.0</ele><time>2026-04-06T10:35:24.616Z</time></trkpt><trkpt lat="42.9006518" lon="11.6418326"><ele>1230.0</ele><time>2026-04-06T10:35:25.616Z</time></trkpt><trkpt lat="42.9007118" lon="11.6419927"><ele>1230.0</ele><time>2026-04-06T10:35:26.616Z</time></trkpt><trkpt lat="42.9007536" lon="11.6421685"><ele>1230.0</ele><time>2026-04-06T10:35:27.616Z</time></trkpt><trkpt lat="42.9007831" lon="11.6423343"><ele>1230.75</ele><time>2026-04-06T10:35:28.616Z</time></trkpt><trkpt lat="42.9008104" lon="11.6425034"><ele>1231.5</ele><time>2026-04-06T10:35:29.616Z</time></trkpt><trkpt lat="42.9008536" lon="11.6426625"><ele>1232.25</ele><time>2026-04-06T10:35:30.616Z</time></trkpt><trkpt lat="42.9009101" lon="11.6427941"><ele>1233.0</ele><time>2026-04-06T10:35:31.616Z</time></trkpt><trkpt lat="42.9009742" lon="11.6429365"><ele>1227.0</ele><time>2026-04-06T10:35:32.616Z</time></trkpt><trkpt lat="42.9010459" lon="11.6430724"><ele>1221.0</ele><time>2026-04-06T10:35:33.616Z</time></trkpt><trkpt lat="42.9011081" lon="11.6432051"><ele>1215.0</ele><time>2026-04-06T10:35:34.616Z</time></trkpt><trkpt lat="42.9011629" lon="11.6433398"><ele>1209.0</ele><time>2026-04-06T10:35:35.616Z</time></trkpt><trkpt lat="42.9012163" lon="11.6434868"><ele>1210.25</ele><time>2026-04-06T10:35:36.615Z</time></trkpt><trkpt lat="42.9012715" lon="11.6436448"><ele>1211.5</ele><time>2026-04-06T10:35:37.616Z</time></trkpt><trkpt lat="42.9013231" lon="11.6437948"><ele>1212.75</ele><time>2026-04-06T10:35:38.616Z</time></trkpt><trkpt lat="42.9013723" lon="11.6439437"><ele>1214.0</ele><time>2026-04-06T10:35:39.616Z</time></trkpt><trkpt lat="42.901414" lon="11.6440943"><ele>1214.0</ele><time>2026-04-06T10:35:40.616Z</time></trkpt><trkpt lat="42.9014538" lon="11.6442368"><ele>1214.0</ele><time>2026-04-06T10:35:41.616Z</time></trkpt><trkpt lat="42.9014887" lon="11.6443775"><ele>1214.0</ele><time>2026-04-06T10:35:42.615Z</time></trkpt><trkpt lat="42.9015061" lon="11.6445177"><ele>1214.0</ele><time>2026-04-06T10:35:43.616Z</time></trkpt><trkpt lat="42.9015039" lon="11.6446461"><ele>1214.0</ele><time>2026-04-06T10:35:44.616Z</time></trkpt><trkpt lat="42.9014896" lon="11.644766"><ele>1212.8</ele><time>2026-04-06T10:35:45.616Z</time></trkpt><trkpt lat="42.9014604" lon="11.6448874"><ele>1211.6000000000001</ele><time>2026-04-06T10:35:46.615Z</time></trkpt><trkpt lat="42.9014119" lon="11.6450196"><ele>1210.4</ele><time>2026-04-06T10:35:47.616Z</time></trkpt><trkpt lat="42.9013433" lon="11.6451542"><ele>1209.2</ele><time>2026-04-06T10:35:48.616Z</time></trkpt><trkpt lat="42.9012857" lon="11.6452925"><ele>1208.0</ele><time>2026-04-06T10:35:49.615Z</time></trkpt><trkpt lat="42.9011975" lon="11.6454497"><ele>1210.6666666666667</ele><time>2026-04-06T10:35:50.616Z</time></trkpt><trkpt lat="42.9011001" lon="11.6456158"><ele>1213.3333333333333</ele><time>2026-04-06T10:35:51.616Z</time></trkpt><trkpt lat="42.9009986" lon="11.6457991"><ele>1216.0</ele><time>2026-04-06T10:35:52.616Z</time></trkpt><trkpt lat="42.9009035" lon="11.6459503"><ele>1216.0</ele><time>2026-04-06T10:35:53.616Z</time></trkpt><trkpt lat="42.9008065" lon="11.6460948"><ele>1216.0</ele><time>2026-04-06T10:35:54.615Z</time></trkpt><trkpt lat="42.900697" lon="11.6462143"><ele>1216.0</ele><time>2026-04-06T10:35:55.616Z</time></trkpt><trkpt lat="42.9005895" lon="11.6463163"><ele>1216.0</ele><time>2026-04-06T10:35:56.616Z</time></trkpt><trkpt lat="42.9004774" lon="11.6464192"><ele>1211.5</ele><time>2026-04-06T10:35:57.616Z</time></trkpt><trkpt lat="42.900356" lon="11.6465238"><ele>1207.0</ele><time>2026-04-06T10:35:58.616Z</time></trkpt><trkpt lat="42.9002517" lon="11.6466128"><ele>1202.5</ele><time>2026-04-06T10:35:59.616Z</time></trkpt><trkpt lat="42.9001453" lon="11.6467089"><ele>1198.0</ele><time>2026-04-06T10:36:00.616Z</time></trkpt><trkpt lat="42.900102" lon="11.6468164"><ele>1197.5</ele><time>2026-04-06T10:36:01.616Z</time></trkpt><trkpt lat="42.9000657" lon="11.6469142"><ele>1197.0</ele><time>2026-04-06T10:36:02.616Z</time></trkpt><trkpt lat="42.9000662" lon="11.6470083"><ele>1196.5</ele><time>2026-04-06T10:36:03.616Z</time></trkpt><trkpt lat="42.9000903" lon="11.6470989"><ele>1196.0</ele><time>2026-04-06T10:36:04.616Z</time></trkpt><trkpt lat="42.9001331" lon="11.6471784"><ele>1195.5</ele><time>2026-04-06T10:36:05.616Z</time></trkpt><trkpt lat="42.9001862" lon="11.6472541"><ele>1195.0</ele><time>2026-04-06T10:36:06.615Z</time></trkpt><trkpt lat="42.9002646" lon="11.647309"><ele>1191.75</ele><time>2026-04-06T10:36:07.616Z</time></trkpt><trkpt lat="42.9003588" lon="11.647341"><ele>1188.5</ele><time>2026-04-06T10:36:08.616Z</time></trkpt><trkpt lat="42.9004668" lon="11.6473563"><ele>1185.25</ele><time>2026-04-06T10:36:09.616Z</time></trkpt><trkpt lat="42.9005909" lon="11.6473337"><ele>1182.0</ele><time>2026-04-06T10:36:10.616Z</time></trkpt><trkpt lat="42.9007216" lon="11.647277"><ele>1182.0</ele><time>2026-04-06T10:36:11.616Z</time></trkpt><trkpt lat="42.9008497" lon="11.6472118"><ele>1182.0</ele><time>2026-04-06T10:36:12.616Z</time></trkpt><trkpt lat="42.9009893" lon="11.647125"><ele>1182.0</ele><time>2026-04-06T10:36:13.617Z</time></trkpt><trkpt lat="42.9011412" lon="11.6470249"><ele>1184.3333333333333</ele><time>2026-04-06T10:36:14.616Z</time></trkpt><trkpt lat="42.9012918" lon="11.6469368"><ele>1186.6666666666665</ele><time>2026-04-06T10:36:15.616Z</time></trkpt><trkpt lat="42.9014506" lon="11.6468448"><ele>1189.0</ele><time>2026-04-06T10:36:16.617Z</time></trkpt><trkpt lat="42.9016027" lon="11.6467497"><ele>1189.0</ele><time>2026-04-06T10:36:17.617Z</time></trkpt><trkpt lat="42.9017392" lon="11.6466738"><ele>1189.0</ele><time>2026-04-06T10:36:18.617Z</time></trkpt><trkpt lat="42.901869" lon="11.6466086"><ele>1189.0</ele><time>2026-04-06T10:36:19.617Z</time></trkpt><trkpt lat="42.9019933" lon="11.6465444"><ele>1189.0</ele><time>2026-04-06T10:36:20.617Z</time></trkpt><trkpt lat="42.9021134" lon="11.6464797"><ele>1186.5</ele><time>2026-04-06T10:36:21.617Z</time></trkpt><trkpt lat="42.9022348" lon="11.6464129"><ele>1184.0</ele><time>2026-04-06T10:36:22.617Z</time></trkpt><trkpt lat="42.9023454" lon="11.6463606"><ele>1181.5</ele><time>2026-04-06T10:36:23.617Z</time></trkpt><trkpt lat="42.9024572" lon="11.6463249"><ele>1179.0</ele><time>2026-04-06T10:36:24.617Z</time></trkpt><trkpt lat="42.9025713" lon="11.6463484"><ele>1177.25</ele><time>2026-04-06T10:36:25.617Z</time></trkpt><trkpt lat="42.9026798" lon="11.6464131"><ele>1175.5</ele><time>2026-04-06T10:36:26.617Z</time></trkpt><trkpt lat="42.902783" lon="11.6464922"><ele>1173.75</ele><time>2026-04-06T10:36:27.617Z</time></trkpt><trkpt lat="42.9028731" lon="11.6465983"><ele>1172.0</ele><time>2026-04-06T10:36:28.617Z</time></trkpt><trkpt lat="42.9029622" lon="11.6467102"><ele>1172.0</ele><time>2026-04-06T10:36:29.617Z</time></trkpt><trkpt lat="42.9030496" lon="11.6468284"><ele>1172.0</ele><time>2026-04-06T10:36:30.617Z</time></trkpt><trkpt lat="42.9031374" lon="11.6469456"><ele>1172.0</ele><time>2026-04-06T10:36:31.617Z</time></trkpt><trkpt lat="42.9032257" lon="11.647061"><ele>1172.0</ele><time>2026-04-06T10:36:32.617Z</time></trkpt><trkpt lat="42.9033086" lon="11.6471849"><ele>1170.75</ele><time>2026-04-06T10:36:33.617Z</time></trkpt><trkpt lat="42.9033817" lon="11.6473279"><ele>1169.5</ele><time>2026-04-06T10:36:34.617Z</time></trkpt><trkpt lat="42.9034372" lon="11.647487"><ele>1168.25</ele><time>2026-04-06T10:36:35.617Z</time></trkpt><trkpt lat="42.9034805" lon="11.6476534"><ele>1167.0</ele><time>2026-04-06T10:36:36.617Z</time></trkpt><trkpt lat="42.9035236" lon="11.6478208"><ele>1163.0</ele><time>2026-04-06T10:36:37.617Z</time></trkpt><trkpt lat="42.9035616" lon="11.6479827"><ele>1159.0</ele><time>2026-04-06T10:36:38.617Z</time></trkpt><trkpt lat="42.9035989" lon="11.6481394"><ele>1155.0</ele><time>2026-04-06T10:36:39.617Z</time></trkpt><trkpt lat="42.9036232" lon="11.6483012"><ele>1151.0</ele><time>2026-04-06T10:36:40.617Z</time></trkpt><trkpt lat="42.9036336" lon="11.648462"><ele>1151.0</ele><time>2026-04-06T10:36:41.617Z</time></trkpt><trkpt lat="42.9036325" lon="11.6486209"><ele>1151.0</ele><time>2026-04-06T10:36:42.617Z</time></trkpt><trkpt lat="42.9036294" lon="11.6487748"><ele>1151.0</ele><time>2026-04-06T10:36:43.617Z</time></trkpt><trkpt lat="42.9036216" lon="11.6489249"><ele>1151.0</ele><time>2026-04-06T10:36:44.617Z</time></trkpt><trkpt lat="42.9036117" lon="11.6490713"><ele>1151.0</ele><time>2026-04-06T10:36:45.617Z</time></trkpt><trkpt lat="42.9036038" lon="11.649214"><ele>1149.8</ele><time>2026-04-06T10:36:46.617Z</time></trkpt><trkpt lat="42.9035971" lon="11.6493578"><ele>1148.6</ele><time>2026-04-06T10:36:47.617Z</time></trkpt><trkpt lat="42.9035897" lon="11.6495024"><ele>1147.4</ele><time>2026-04-06T10:36:48.617Z</time></trkpt><trkpt lat="42.9035831" lon="11.649645"><ele>1146.2</ele><time>2026-04-06T10:36:49.617Z</time></trkpt><trkpt lat="42.9035736" lon="11.649789"><ele>1145.0</ele><time>2026-04-06T10:36:50.617Z</time></trkpt><trkpt lat="42.9035567" lon="11.6499386"><ele>1141.75</ele><time>2026-04-06T10:36:51.617Z</time></trkpt><trkpt lat="42.9035396" lon="11.6500883"><ele>1138.5</ele><time>2026-04-06T10:36:52.617Z</time></trkpt><trkpt lat="42.9035182" lon="11.6502484"><ele>1135.25</ele><time>2026-04-06T10:36:53.616Z</time></trkpt><trkpt lat="42.9034923" lon="11.6504101"><ele>1132.0</ele><time>2026-04-06T10:36:54.617Z</time></trkpt><trkpt lat="42.9034637" lon="11.6505694"><ele>1132.5</ele><time>2026-04-06T10:36:55.617Z</time></trkpt><trkpt lat="42.9034285" lon="11.650736"><ele>1133.0</ele><time>2026-04-06T10:36:56.617Z</time></trkpt><trkpt lat="42.9033922" lon="11.6509211"><ele>1133.5</ele><time>2026-04-06T10:36:57.617Z</time></trkpt><trkpt lat="42.9033513" lon="11.6511095"><ele>1134.0</ele><time>2026-04-06T10:36:58.617Z</time></trkpt><trkpt lat="42.9033086" lon="11.6512939"><ele>1134.0</ele><time>2026-04-06T10:36:59.617Z</time></trkpt><trkpt lat="42.9032694" lon="11.6514689"><ele>1134.0</ele><time>2026-04-06T10:37:00.617Z</time></trkpt><trkpt lat="42.9032301" lon="11.6516411"><ele>1134.0</ele><time>2026-04-06T10:37:01.617Z</time></trkpt><trkpt lat="42.9031874" lon="11.6518113"><ele>1134.0</ele><time>2026-04-06T10:37:02.617Z</time></trkpt><trkpt lat="42.9031511" lon="11.6519735"><ele>1132.4</ele><time>2026-04-06T10:37:03.617Z</time></trkpt><trkpt lat="42.9031147" lon="11.6521391"><ele>1130.8000000000002</ele><time>2026-04-06T10:37:04.617Z</time></trkpt><trkpt lat="42.9030843" lon="11.6522909"><ele>1129.1999999999998</ele><time>2026-04-06T10:37:05.617Z</time></trkpt><trkpt lat="42.9030648" lon="11.6524297"><ele>1127.6</ele><time>2026-04-06T10:37:06.617Z</time></trkpt><trkpt lat="42.9030387" lon="11.6525418"><ele>1126.0</ele><time>2026-04-06T10:37:07.617Z</time></trkpt><trkpt lat="42.903007" lon="11.6526476"><ele>1126.0</ele><time>2026-04-06T10:37:08.617Z</time></trkpt><trkpt lat="42.9029564" lon="11.6527332"><ele>1126.0</ele><time>2026-04-06T10:37:09.617Z</time></trkpt><trkpt lat="42.9028821" lon="11.6528048"><ele>1126.0</ele><time>2026-04-06T10:37:10.617Z</time></trkpt><trkpt lat="42.9027975" lon="11.6528395"><ele>1126.0</ele><time>2026-04-06T10:37:11.617Z</time></trkpt><trkpt lat="42.9027142" lon="11.6528137"><ele>1126.0</ele><time>2026-04-06T10:37:12.617Z</time></trkpt><trkpt lat="42.9026094" lon="11.6527555"><ele>1123.0</ele><time>2026-04-06T10:37:13.617Z</time></trkpt><trkpt lat="42.9025231" lon="11.652657"><ele>1120.0</ele><time>2026-04-06T10:37:14.617Z</time></trkpt><trkpt lat="42.9024728" lon="11.6525299"><ele>1117.0</ele><time>2026-04-06T10:37:15.617Z</time></trkpt><trkpt lat="42.9024407" lon="11.6523092"><ele>1114.0</ele><time>2026-04-06T10:37:16.618Z</time></trkpt><trkpt lat="42.9024103" lon="11.6520816"><ele>1117.0</ele><time>2026-04-06T10:37:17.617Z</time></trkpt><trkpt lat="42.902384" lon="11.6518751"><ele>1120.0</ele><time>2026-04-06T10:37:18.618Z</time></trkpt><trkpt lat="42.9023297" lon="11.6516748"><ele>1123.0</ele><time>2026-04-06T10:37:19.618Z</time></trkpt><trkpt lat="42.9022824" lon="11.6514847"><ele>1123.0</ele><time>2026-04-06T10:37:20.618Z</time></trkpt><trkpt lat="42.9022372" lon="11.651272"><ele>1123.0</ele><time>2026-04-06T10:37:21.618Z</time></trkpt><trkpt lat="42.9021986" lon="11.6510752"><ele>1123.0</ele><time>2026-04-06T10:37:22.617Z</time></trkpt><trkpt lat="42.9021567" lon="11.6508955"><ele>1126.0</ele><time>2026-04-06T10:37:23.618Z</time></trkpt><trkpt lat="42.9021106" lon="11.650732"><ele>1129.0</ele><time>2026-04-06T10:37:24.618Z</time></trkpt><trkpt lat="42.9020555" lon="11.6505718"><ele>1132.0</ele><time>2026-04-06T10:37:25.618Z</time></trkpt><trkpt lat="42.901995" lon="11.6504179"><ele>1135.0</ele><time>2026-04-06T10:37:26.618Z</time></trkpt><trkpt lat="42.9019306" lon="11.6502659"><ele>1131.75</ele><time>2026-04-06T10:37:27.617Z</time></trkpt><trkpt lat="42.9018584" lon="11.6501249"><ele>1128.5</ele><time>2026-04-06T10:37:28.617Z</time></trkpt><trkpt lat="42.9017725" lon="11.6499998"><ele>1125.25</ele><time>2026-04-06T10:37:29.618Z</time></trkpt><trkpt lat="42.9016741" lon="11.6498937"><ele>1122.0</ele><time>2026-04-06T10:37:30.618Z</time></trkpt><trkpt lat="42.9015668" lon="11.6498039"><ele>1122.0</ele><time>2026-04-06T10:37:31.618Z</time></trkpt><trkpt lat="42.9014613" lon="11.6497185"><ele>1122.0</ele><time>2026-04-06T10:37:32.618Z</time></trkpt><trkpt lat="42.9013508" lon="11.6496299"><ele>1122.0</ele><time>2026-04-06T10:37:33.618Z</time></trkpt><trkpt lat="42.9012403" lon="11.6495407"><ele>1122.0</ele><time>2026-04-06T10:37:34.618Z</time></trkpt><trkpt lat="42.9011258" lon="11.6494614"><ele>1123.5</ele><time>2026-04-06T10:37:35.618Z</time></trkpt><trkpt lat="42.9010058" lon="11.6494009"><ele>1125.0</ele><time>2026-04-06T10:37:36.617Z</time></trkpt><trkpt lat="42.9008924" lon="11.649355"><ele>1126.5</ele><time>2026-04-06T10:37:37.618Z</time></trkpt><trkpt lat="42.9007759" lon="11.6493712"><ele>1128.0</ele><time>2026-04-06T10:37:38.618Z</time></trkpt><trkpt lat="42.9006569" lon="11.6493883"><ele>1128.0</ele><time>2026-04-06T10:37:39.618Z</time></trkpt><trkpt lat="42.9005354" lon="11.6494119"><ele>1128.0</ele><time>2026-04-06T10:37:40.618Z</time></trkpt><trkpt lat="42.9004213" lon="11.6494475"><ele>1128.0</ele><time>2026-04-06T10:37:41.618Z</time></trkpt><trkpt lat="42.9003196" lon="11.6495148"><ele>1128.0</ele><time>2026-04-06T10:37:42.618Z</time></trkpt><trkpt lat="42.9002243" lon="11.6495902"><ele>1122.8</ele><time>2026-04-06T10:37:43.618Z</time></trkpt><trkpt lat="42.9001549" lon="11.6496928"><ele>1117.6</ele><time>2026-04-06T10:37:44.618Z</time></trkpt><trkpt lat="42.9000853" lon="11.6497899"><ele>1112.4</ele><time>2026-04-06T10:37:45.618Z</time></trkpt><trkpt lat="42.9000094" lon="11.6498617"><ele>1107.2</ele><time>2026-04-06T10:37:46.618Z</time></trkpt><trkpt lat="42.8999335" lon="11.6498939"><ele>1102.0</ele><time>2026-04-06T10:37:47.618Z</time></trkpt><trkpt lat="42.8998537" lon="11.6498818"><ele>1101.2</ele><time>2026-04-06T10:37:48.618Z</time></trkpt><trkpt lat="42.8997682" lon="11.6498309"><ele>1100.4</ele><time>2026-04-06T10:37:49.618Z</time></trkpt><trkpt lat="42.8996967" lon="11.6497498"><ele>1099.6</ele><time>2026-04-06T10:37:50.618Z</time></trkpt><trkpt lat="42.8996222" lon="11.6496465"><ele>1098.8</ele><time>2026-04-06T10:37:51.618Z</time></trkpt><trkpt lat="42.8995525" lon="11.6495373"><ele>1098.0</ele><time>2026-04-06T10:37:52.618Z</time></trkpt><trkpt lat="42.8994787" lon="11.6494358"><ele>1099.0</ele><time>2026-04-06T10:37:53.618Z</time></trkpt><trkpt lat="42.8993917" lon="11.6493254"><ele>1100.0</ele><time>2026-04-06T10:37:54.618Z</time></trkpt><trkpt lat="42.8993126" lon="11.6492462"><ele>1101.0</ele><time>2026-04-06T10:37:55.618Z</time></trkpt><trkpt lat="42.8991993" lon="11.649189"><ele>1102.0</ele><time>2026-04-06T10:37:56.618Z</time></trkpt><trkpt lat="42.8990746" lon="11.6491511"><ele>1102.0</ele><time>2026-04-06T10:37:57.618Z</time></trkpt><trkpt lat="42.8989624" lon="11.6491257"><ele>1102.0</ele><time>2026-04-06T10:37:58.617Z</time></trkpt><trkpt lat="42.898843" lon="11.6490848"><ele>1102.0</ele><time>2026-04-06T10:37:59.617Z</time></trkpt><trkpt lat="42.8987182" lon="11.6489999"><ele>1102.0</ele><time>2026-04-06T10:38:00.618Z</time></trkpt><trkpt lat="42.8986106" lon="11.6489118"><ele>1102.0</ele><time>2026-04-06T10:38:01.618Z</time></trkpt><trkpt lat="42.8984985" lon="11.6488214"><ele>1102.0</ele><time>2026-04-06T10:38:02.618Z</time></trkpt><trkpt lat="42.8982869" lon="11.6487543"><ele>1102.0</ele><time>2026-04-06T10:38:03.618Z</time></trkpt><trkpt lat="42.8981483" lon="11.648676"><ele>1103.75</ele><time>2026-04-06T10:38:04.618Z</time></trkpt><trkpt lat="42.8980136" lon="11.6485986"><ele>1105.5</ele><time>2026-04-06T10:38:05.618Z</time></trkpt><trkpt lat="42.8978813" lon="11.6485305"><ele>1107.25</ele><time>2026-04-06T10:38:06.618Z</time></trkpt><trkpt lat="42.8977506" lon="11.6484858"><ele>1109.0</ele><time>2026-04-06T10:38:07.618Z</time></trkpt><trkpt lat="42.8976324" lon="11.6484713"><ele>1105.0</ele><time>2026-04-06T10:38:08.618Z</time></trkpt><trkpt lat="42.897519" lon="11.6484752"><ele>1101.0</ele><time>2026-04-06T10:38:09.618Z</time></trkpt><trkpt lat="42.8973965" lon="11.6484954"><ele>1097.0</ele><time>2026-04-06T10:38:10.619Z</time></trkpt><trkpt lat="42.8972734" lon="11.6485234"><ele>1093.0</ele><time>2026-04-06T10:38:11.617Z</time></trkpt><trkpt lat="42.8971505" lon="11.6485785"><ele>1091.5</ele><time>2026-04-06T10:38:12.618Z</time></trkpt><trkpt lat="42.8970253" lon="11.6486553"><ele>1090.0</ele><time>2026-04-06T10:38:13.618Z</time></trkpt><trkpt lat="42.8968997" lon="11.6487589"><ele>1088.5</ele><time>2026-04-06T10:38:14.618Z</time></trkpt><trkpt lat="42.89678" lon="11.6488501"><ele>1087.0</ele><time>2026-04-06T10:38:15.619Z</time></trkpt><trkpt lat="42.8966661" lon="11.6489496"><ele>1087.0</ele><time>2026-04-06T10:38:16.619Z</time></trkpt><trkpt lat="42.8965793" lon="11.6490839"><ele>1087.0</ele><time>2026-04-06T10:38:17.619Z</time></trkpt><trkpt lat="42.8965475" lon="11.6492613"><ele>1087.0</ele><time>2026-04-06T10:38:18.619Z</time></trkpt><trkpt lat="42.8965108" lon="11.6494316"><ele>1087.0</ele><time>2026-04-06T10:38:19.619Z</time></trkpt><trkpt lat="42.8964655" lon="11.6496122"><ele>1085.5</ele><time>2026-04-06T10:38:20.619Z</time></trkpt><trkpt lat="42.8964187" lon="11.6497735"><ele>1084.0</ele><time>2026-04-06T10:38:21.619Z</time></trkpt><trkpt lat="42.8963684" lon="11.6499235"><ele>1082.5</ele><time>2026-04-06T10:38:22.619Z</time></trkpt><trkpt lat="42.8963001" lon="11.6500795"><ele>1081.0</ele><time>2026-04-06T10:38:23.618Z</time></trkpt><trkpt lat="42.8962244" lon="11.6502348"><ele>1078.25</ele><time>2026-04-06T10:38:24.619Z</time></trkpt><trkpt lat="42.8961503" lon="11.6503925"><ele>1075.5</ele><time>2026-04-06T10:38:25.619Z</time></trkpt><trkpt lat="42.8960947" lon="11.6505454"><ele>1072.75</ele><time>2026-04-06T10:38:26.619Z</time></trkpt><trkpt lat="42.896032" lon="11.6506626"><ele>1070.0</ele><time>2026-04-06T10:38:27.619Z</time></trkpt><trkpt lat="42.8959461" lon="11.6507288"><ele>1069.75</ele><time>2026-04-06T10:38:28.618Z</time></trkpt><trkpt lat="42.8958434" lon="11.6507665"><ele>1069.5</ele><time>2026-04-06T10:38:29.619Z</time></trkpt><trkpt lat="42.8957338" lon="11.6507902"><ele>1069.25</ele><time>2026-04-06T10:38:30.618Z</time></trkpt><trkpt lat="42.8956226" lon="11.6508139"><ele>1069.0</ele><time>2026-04-06T10:38:31.619Z</time></trkpt><trkpt lat="42.8955029" lon="11.6508625"><ele>1069.0</ele><time>2026-04-06T10:38:32.619Z</time></trkpt><trkpt lat="42.8953833" lon="11.6509189"><ele>1069.0</ele><time>2026-04-06T10:38:33.619Z</time></trkpt><trkpt lat="42.8952634" lon="11.650999"><ele>1069.0</ele><time>2026-04-06T10:38:34.619Z</time></trkpt><trkpt lat="42.8951427" lon="11.6510833"><ele>1069.0</ele><time>2026-04-06T10:38:35.619Z</time></trkpt><trkpt lat="42.895025" lon="11.6511662"><ele>1067.0</ele><time>2026-04-06T10:38:36.619Z</time></trkpt><trkpt lat="42.8949084" lon="11.6512518"><ele>1065.0</ele><time>2026-04-06T10:38:37.618Z</time></trkpt><trkpt lat="42.8947963" lon="11.651341"><ele>1063.0</ele><time>2026-04-06T10:38:38.619Z</time></trkpt><trkpt lat="42.8946847" lon="11.651431"><ele>1061.0</ele><time>2026-04-06T10:38:39.619Z</time></trkpt><trkpt lat="42.8945753" lon="11.6515265"><ele>1061.0</ele><time>2026-04-06T10:38:40.619Z</time></trkpt><trkpt lat="42.8944898" lon="11.6516438"><ele>1061.0</ele><time>2026-04-06T10:38:41.619Z</time></trkpt><trkpt lat="42.8944196" lon="11.6517785"><ele>1061.0</ele><time>2026-04-06T10:38:42.619Z</time></trkpt><trkpt lat="42.8943636" lon="11.6519199"><ele>1061.0</ele><time>2026-04-06T10:38:43.619Z</time></trkpt><trkpt lat="42.8943237" lon="11.6520696"><ele>1057.75</ele><time>2026-04-06T10:38:44.619Z</time></trkpt><trkpt lat="42.8943005" lon="11.652222"><ele>1054.5</ele><time>2026-04-06T10:38:45.619Z</time></trkpt><trkpt lat="42.8942955" lon="11.6523779"><ele>1051.25</ele><time>2026-04-06T10:38:46.619Z</time></trkpt><trkpt lat="42.8943065" lon="11.6525321"><ele>1048.0</ele><time>2026-04-06T10:38:47.619Z</time></trkpt><trkpt lat="42.8943269" lon="11.652686"><ele>1046.0</ele><time>2026-04-06T10:38:48.619Z</time></trkpt><trkpt lat="42.894356" lon="11.6528389"><ele>1044.0</ele><time>2026-04-06T10:38:49.619Z</time></trkpt><trkpt lat="42.8943909" lon="11.6529914"><ele>1042.0</ele><time>2026-04-06T10:38:50.619Z</time></trkpt><trkpt lat="42.8944213" lon="11.6531478"><ele>1040.0</ele><time>2026-04-06T10:38:51.619Z</time></trkpt><trkpt lat="42.8944517" lon="11.6533053"><ele>1040.0</ele><time>2026-04-06T10:38:52.619Z</time></trkpt><trkpt lat="42.8944825" lon="11.6534641"><ele>1040.0</ele><time>2026-04-06T10:38:53.619Z</time></trkpt><trkpt lat="42.8945125" lon="11.6536201"><ele>1040.0</ele><time>2026-04-06T10:38:54.619Z</time></trkpt><trkpt lat="42.8945432" lon="11.6537734"><ele>1040.0</ele><time>2026-04-06T10:38:55.619Z</time></trkpt><trkpt lat="42.8945744" lon="11.6539263"><ele>1037.5</ele><time>2026-04-06T10:38:56.619Z</time></trkpt><trkpt lat="42.8946073" lon="11.6540798"><ele>1035.0</ele><time>2026-04-06T10:38:57.619Z</time></trkpt><trkpt lat="42.8946411" lon="11.6542314"><ele>1032.5</ele><time>2026-04-06T10:38:58.619Z</time></trkpt><trkpt lat="42.8946736" lon="11.6543813"><ele>1030.0</ele><time>2026-04-06T10:38:59.619Z</time></trkpt><trkpt lat="42.8946995" lon="11.6545327"><ele>1028.4</ele><time>2026-04-06T10:39:00.619Z</time></trkpt><trkpt lat="42.894704" lon="11.654687"><ele>1026.8</ele><time>2026-04-06T10:39:01.619Z</time></trkpt><trkpt lat="42.8946749" lon="11.6548326"><ele>1025.2</ele><time>2026-04-06T10:39:02.619Z</time></trkpt><trkpt lat="42.8946397" lon="11.6549656"><ele>1023.6</ele><time>2026-04-06T10:39:03.619Z</time></trkpt><trkpt lat="42.8945597" lon="11.655078"><ele>1022.0</ele><time>2026-04-06T10:39:04.619Z</time></trkpt><trkpt lat="42.8944708" lon="11.6551847"><ele>1021.5</ele><time>2026-04-06T10:39:05.619Z</time></trkpt><trkpt lat="42.8943754" lon="11.6552878"><ele>1021.0</ele><time>2026-04-06T10:39:06.619Z</time></trkpt><trkpt lat="42.8942718" lon="11.6553762"><ele>1020.5</ele><time>2026-04-06T10:39:07.619Z</time></trkpt><trkpt lat="42.8941646" lon="11.6554511"><ele>1020.0</ele><time>2026-04-06T10:39:08.619Z</time></trkpt><trkpt lat="42.8940562" lon="11.6555208"><ele>1020.0</ele><time>2026-04-06T10:39:09.619Z</time></trkpt><trkpt lat="42.8939509" lon="11.6555931"><ele>1020.0</ele><time>2026-04-06T10:39:10.618Z</time></trkpt><trkpt lat="42.8938526" lon="11.6556749"><ele>1020.0</ele><time>2026-04-06T10:39:11.619Z</time></trkpt><trkpt lat="42.8937698" lon="11.6557784"><ele>1020.0</ele><time>2026-04-06T10:39:12.619Z</time></trkpt><trkpt lat="42.8937139" lon="11.6559062"><ele>1020.0</ele><time>2026-04-06T10:39:13.619Z</time></trkpt><trkpt lat="42.8936923" lon="11.6560485"><ele>1020.0</ele><time>2026-04-06T10:39:14.619Z</time></trkpt><trkpt lat="42.8936807" lon="11.6561872"><ele>1020.0</ele><time>2026-04-06T10:39:15.619Z</time></trkpt><trkpt lat="42.8937379" lon="11.6563046"><ele>1020.0</ele><time>2026-04-06T10:39:16.619Z</time></trkpt><trkpt lat="42.8938158" lon="11.6563943"><ele>1020.0</ele><time>2026-04-06T10:39:17.62Z</time></trkpt><trkpt lat="42.8939121" lon="11.6564498"><ele>1011.0</ele><time>2026-04-06T10:39:18.62Z</time></trkpt><trkpt lat="42.8939121" lon="11.6564498"><ele>1011.0</ele><time>2026-04-06T10:39:18.62Z</time></trkpt><trkpt lat="42.8939121" lon="11.6564498"><ele>1011.0</ele><time>2026-04-06T10:39:18.62Z</time></trkpt></trkseg></trk></gpx>